Time;durP1;ratioP1;P1;durP2;ratioP2;P2;SDS_P1;SDS_P2;PMS_P1;PMS_P2;Temp;Humidity;BMP_temperature;BMP_pressure;BME280_temperature;BME280_humidity;BME280_pressure;Samples;Min_cycle;Max_cycle;Signal;HPM_P1;HPM_P2
2022/10/17 00:00:44;;;;;;;12.93;2.10;;;17.30;99.90;;;;;;5014734;28;20449;-81
2022/10/17 00:03:11;;;;;;;7.10;1.90;;;17.20;99.90;;;;;;5014520;28;20950;-82
2022/10/17 00:05:45;;;;;;;5.97;1.80;;;17.20;99.90;;;;;;5013219;28;20498;-85
2022/10/17 00:08:14;;;;;;;7.85;1.98;;;17.20;99.90;;;;;;5014527;28;20391;-85
2022/10/17 00:10:41;;;;;;;7.85;1.83;;;17.30;99.90;;;;;;5014503;28;20529;-84
2022/10/17 00:13:09;;;;;;;7.57;1.80;;;17.40;99.90;;;;;;5014805;28;20925;-86
2022/10/17 00:15:36;;;;;;;9.83;2.13;;;17.50;99.90;;;;;;5014192;28;20450;-84
2022/10/17 00:18:03;;;;;;;12.63;2.38;;;17.50;99.90;;;;;;5014209;28;20379;-83
2022/10/17 00:20:31;;;;;;;9.73;2.15;;;17.40;99.90;;;;;;5013993;28;20395;-83
2022/10/17 00:22:59;;;;;;;13.02;5.88;;;17.50;99.90;;;;;;5014689;28;20515;-81
2022/10/17 00:25:26;;;;;;;14.65;6.30;;;17.50;99.90;;;;;;5015630;28;20430;-82
2022/10/17 00:27:53;;;;;;;13.80;5.88;;;17.40;99.90;;;;;;5016330;28;20721;-81
2022/10/17 00:30:20;;;;;;;9.88;2.60;;;17.30;99.90;;;;;;5019779;28;20426;-85
2022/10/17 00:32:47;;;;;;;9.63;2.83;;;17.30;99.90;;;;;;5016861;28;20751;-80
2022/10/17 00:35:14;;;;;;;14.50;3.10;;;17.40;99.90;;;;;;5013847;28;20367;-85
2022/10/17 00:37:41;;;;;;;13.60;3.90;;;17.50;99.90;;;;;;5014290;28;20863;-82
2022/10/17 00:40:09;;;;;;;14.45;2.80;;;17.70;99.90;;;;;;5013869;28;20871;-88
2022/10/17 00:42:36;;;;;;;10.00;2.40;;;17.80;99.90;;;;;;5013819;28;20835;-88
2022/10/17 00:45:24;;;;;;;13.75;2.70;;;18.00;99.90;;;;;;5013571;28;20411;-82
2022/10/17 00:48:04;;;;;;;11.03;2.60;;;18.10;99.90;;;;;;5013867;28;20843;-85
2022/10/17 00:50:33;;;;;;;9.50;2.25;;;18.00;99.90;;;;;;5013860;28;20367;-84
2022/10/17 00:53:03;;;;;;;6.50;2.00;;;18.00;99.90;;;;;;5013271;28;20386;-85
2022/10/17 00:55:34;;;;;;;8.50;2.20;;;18.00;99.90;;;;;;5013424;28;20371;-88
2022/10/17 00:58:03;;;;;;;7.57;1.90;;;17.90;99.90;;;;;;5013106;28;20375;-86
2022/10/17 01:00:31;;;;;;;8.45;2.10;;;17.90;99.90;;;;;;5013796;28;20451;-89
2022/10/17 01:02:58;;;;;;;8.60;2.07;;;17.80;99.90;;;;;;5013598;28;20376;-90
2022/10/17 01:05:25;;;;;;;7.35;1.98;;;17.80;99.90;;;;;;5012754;28;20413;-87
2022/10/17 01:07:53;;;;;;;7.82;2.08;;;17.90;99.90;;;;;;5013054;28;20404;-83
2022/10/17 01:10:21;;;;;;;7.63;2.03;;;17.90;99.90;;;;;;5013262;28;20375;-87
2022/10/17 01:13:09;;;;;;;8.82;2.15;;;18.00;99.90;;;;;;5012460;28;20384;-87
2022/10/17 01:15:54;;;;;;;7.57;2.00;;;18.10;99.90;;;;;;5013054;28;20376;-87
2022/10/17 01:18:39;;;;;;;8.83;2.30;;;18.30;99.90;;;;;;5013227;28;20371;-86
2022/10/17 01:21:09;;;;;;;6.53;2.10;;;18.60;99.90;;;;;;5013514;28;20380;-84
2022/10/17 01:24:08;;;;;;;8.75;2.13;;;18.90;99.90;;;;;;5013154;28;20886;-86
2022/10/17 01:26:50;;;;;;;5.80;1.95;;;18.90;99.90;;;;;;5031725;28;20417;-89
2022/10/17 01:29:46;;;;;;;5.07;1.80;;;18.90;99.90;;;;;;5013968;28;20497;-87
2022/10/17 01:32:37;;;;;;;7.70;2.13;;;19.00;99.90;;;;;;5030950;28;20473;-87
2022/10/17 01:35:14;;;;;;;6.03;2.00;;;18.90;99.90;;;;;;5031107;28;20369;-86
2022/10/17 01:37:44;;;;;;;9.07;2.30;;;19.00;99.90;;;;;;5031465;28;20369;-86
2022/10/17 01:40:42;;;;;;;7.32;2.20;;;19.10;99.90;;;;;;5031368;28;20750;-86
2022/10/17 01:43:22;;;;;;;9.13;2.10;;;19.50;99.90;;;;;;5031128;28;20376;-88
2022/10/17 01:46:14;;;;;;;5.77;1.70;;;20.00;99.90;;;;;;5030901;28;20401;-83
2022/10/17 01:48:45;;;;;;;7.85;2.20;;;20.40;99.90;;;;;;5016238;28;20432;-84
2022/10/17 01:51:25;;;;;;;8.63;2.10;;;20.60;99.90;;;;;;5030968;28;20377;-85
2022/10/17 01:54:02;;;;;;;8.82;2.00;;;20.70;99.90;;;;;;5014476;28;20465;-85
2022/10/17 01:56:31;;;;;;;10.05;2.30;;;21.00;99.90;;;;;;5030691;28;20440;-86
2022/10/17 01:59:14;;;;;;;8.25;2.17;;;21.10;99.90;;;;;;5032317;28;20420;-82
2022/10/17 02:01:43;;;;;;;9.53;2.20;;;21.20;99.90;;;;;;5036581;28;20382;-83
2022/10/17 02:04:11;;;;;;;7.18;2.22;;;20.90;99.90;;;;;;5018188;28;20457;-87
2022/10/17 02:06:38;;;;;;;9.30;2.20;;;20.60;99.90;;;;;;5023295;28;20403;-87
2022/10/17 02:09:19;;;;;;;7.93;2.17;;;20.20;99.90;;;;;;5018531;28;20375;-88
2022/10/17 02:12:22;;;;;;;7.35;2.00;;;19.80;99.90;;;;;;5017534;28;20883;-82
2022/10/17 02:15:07;;;;;;;8.50;2.10;;;19.60;99.90;;;;;;5015084;28;20728;-82
2022/10/17 02:17:55;;;;;;;7.73;2.30;;;19.50;99.90;;;;;;5011472;28;20458;-88
2022/10/17 02:20:52;;;;;;;7.80;2.10;;;19.30;99.90;;;;;;5012776;28;20434;-84
2022/10/17 02:23:46;;;;;;;7.95;2.10;;;19.00;99.90;;;;;;5012415;28;20466;-88
2022/10/17 02:26:54;;;;;;;13.77;2.40;;;18.80;99.90;;;;;;5013177;28;20415;-85
2022/10/17 02:29:30;;;;;;;7.65;2.20;;;18.60;99.90;;;;;;5015183;28;20398;-86
2022/10/17 02:32:07;;;;;;;8.73;2.22;;;18.60;99.90;;;;;;5016334;28;20375;-86
2022/10/17 02:34:44;;;;;;;9.23;2.17;;;18.80;99.90;;;;;;5048004;28;20474;-86
2022/10/17 02:37:14;;;;;;;8.93;2.23;;;18.90;99.90;;;;;;5015919;28;20462;-87
2022/10/17 02:39:43;;;;;;;10.57;2.40;;;19.10;99.90;;;;;;5015979;28;20468;-87
2022/10/17 02:42:13;;;;;;;8.65;2.22;;;19.20;99.90;;;;;;5016021;28;20386;-82
2022/10/17 02:44:43;;;;;;;10.32;2.38;;;19.30;99.90;;;;;;5016594;28;20730;-81
2022/10/17 02:47:35;;;;;;;8.07;2.20;;;19.50;99.90;;;;;;5015699;28;20387;-81
2022/10/17 02:50:03;;;;;;;9.73;2.10;;;19.90;99.90;;;;;;5015817;28;20843;-87
2022/10/17 02:52:42;;;;;;;9.75;2.22;;;20.30;99.90;;;;;;5047772;28;20376;-86
2022/10/17 02:55:17;;;;;;;9.55;2.22;;;20.50;99.90;;;;;;5016011;28;20473;-87
2022/10/17 02:58:07;;;;;;;8.88;2.30;;;20.70;99.90;;;;;;5015740;28;20466;-85
2022/10/17 03:00:35;;;;;;;7.47;2.13;;;20.80;99.90;;;;;;5015716;28;20367;-83
2022/10/17 03:03:17;;;;;;;7.68;2.20;;;21.10;99.90;;;;;;5015706;28;20378;-86
2022/10/17 03:05:44;;;;;;;6.57;1.90;;;21.40;99.90;;;;;;5015913;28;20501;-87
2022/10/17 03:08:11;;;;;;;8.20;2.10;;;21.80;99.90;;;;;;5016069;28;20375;-83
2022/10/17 03:10:38;;;;;;;9.18;2.08;;;22.20;99.00;;;;;;5015650;28;20454;-86
2022/10/17 03:13:05;;;;;;;7.50;1.88;;;22.30;98.30;;;;;;5047187;28;20379;-81
2022/10/17 03:15:32;;;;;;;6.90;1.77;;;22.20;96.50;;;;;;5015416;28;20897;-83
2022/10/17 03:17:59;;;;;;;7.00;1.70;;;21.70;95.30;;;;;;5015099;28;20385;-86
2022/10/17 03:20:26;;;;;;;6.72;1.80;;;21.50;95.00;;;;;;5015336;28;20387;-84
2022/10/17 03:22:53;;;;;;;7.07;1.67;;;21.50;95.00;;;;;;5015341;28;20747;-86
2022/10/17 03:25:20;;;;;;;7.80;1.88;;;21.60;93.40;;;;;;5015051;28;20419;-84
2022/10/17 03:27:48;;;;;;;5.63;1.50;;;21.40;93.30;;;;;;5015415;28;20521;-90
2022/10/17 03:30:15;;;;;;;6.43;1.50;;;21.20;93.70;;;;;;5014889;28;20415;-86
2022/10/17 03:32:42;;;;;;;8.63;2.05;;;21.10;94.20;;;;;;5015092;28;20790;-88
2022/10/17 03:35:09;;;;;;;8.52;2.10;;;20.90;95.00;;;;;;5014836;28;20406;-83
2022/10/17 03:37:36;;;;;;;7.25;1.65;;;21.00;94.90;;;;;;5014874;28;20399;-90
2022/10/17 03:40:03;;;;;;;8.77;1.70;;;21.10;94.90;;;;;;5014995;28;20394;-88
2022/10/17 03:42:31;;;;;;;5.15;1.42;;;21.20;94.10;;;;;;5014608;28;20367;-85
2022/10/17 03:44:58;;;;;;;4.70;1.30;;;21.20;94.30;;;;;;5014577;28;20398;-84
2022/10/17 03:47:25;;;;;;;5.22;1.52;;;21.40;93.60;;;;;;5014716;28;20460;-86
2022/10/17 03:49:52;;;;;;;4.30;1.52;;;21.50;92.70;;;;;;5014936;28;20410;-85
2022/10/17 03:52:19;;;;;;;6.03;1.58;;;21.70;92.10;;;;;;5014811;28;20797;-86
2022/10/17 03:54:46;;;;;;;5.88;1.48;;;21.90;91.40;;;;;;5014533;28;20407;-86
2022/10/17 03:57:13;;;;;;;5.63;1.70;;;22.10;90.40;;;;;;5014079;28;20389;-85
2022/10/17 03:59:40;;;;;;;9.70;1.63;;;22.50;89.00;;;;;;5014202;28;20856;-85
2022/10/17 04:02:07;;;;;;;6.28;1.50;;;23.10;87.10;;;;;;5013915;28;20466;-84
2022/10/17 04:04:34;;;;;;;4.85;1.67;;;23.20;84.20;;;;;;5014395;28;20389;-84
2022/10/17 04:07:01;;;;;;;7.27;1.70;;;23.00;85.30;;;;;;5014200;28;20452;-83
2022/10/17 04:09:28;;;;;;;5.78;1.50;;;22.40;87.00;;;;;;5014042;28;20375;-86
2022/10/17 04:11:55;;;;;;;6.38;1.73;;;22.00;88.60;;;;;;5013942;28;20411;-86
2022/10/17 04:14:22;;;;;;;6.35;1.60;;;21.50;90.00;;;;;;5014082;28;20386;-86
2022/10/17 04:16:49;;;;;;;6.25;1.63;;;21.20;90.90;;;;;;5013979;28;20411;-86
2022/10/17 04:19:16;;;;;;;6.63;1.60;;;20.90;91.40;;;;;;5013762;28;20803;-81
2022/10/17 04:21:42;;;;;;;6.35;1.70;;;20.70;91.90;;;;;;5013797;28;20376;-83
2022/10/17 04:24:11;;;;;;;8.70;1.80;;;20.60;92.40;;;;;;5015877;28;20845;-86
2022/10/17 04:26:38;;;;;;;6.37;1.60;;;20.50;92.80;;;;;;5014617;28;20917;-84
2022/10/17 04:29:05;;;;;;;6.97;1.73;;;20.30;93.10;;;;;;5014180;28;20410;-86
2022/10/17 04:31:32;;;;;;;6.97;1.60;;;20.20;93.50;;;;;;5045986;28;20751;-86
2022/10/17 04:33:59;;;;;;;5.95;1.65;;;20.10;94.00;;;;;;5014089;28;20394;-87
2022/10/17 04:36:26;;;;;;;8.63;1.60;;;20.10;94.50;;;;;;5014669;28;20499;-81
2022/10/17 04:38:53;;;;;;;7.22;2.00;;;19.90;94.30;;;;;;5018853;28;20439;-85
2022/10/17 04:41:20;;;;;;;9.07;2.10;;;19.70;95.10;;;;;;5019332;28;20387;-84
2022/10/17 04:43:47;;;;;;;10.57;1.80;;;19.70;95.90;;;;;;5015999;28;20403;-86
2022/10/17 04:46:15;;;;;;;4.95;1.70;;;19.50;96.50;;;;;;5022352;28;20410;-87
2022/10/17 04:48:42;;;;;;;8.95;1.60;;;19.40;96.40;;;;;;5025713;28;20380;-89
2022/10/17 04:51:17;;;;;;;8.32;1.73;;;19.30;97.10;;;;;;5057290;28;20375;-83
2022/10/17 04:53:45;;;;;;;8.02;1.88;;;19.20;97.60;;;;;;5028450;28;20373;-85
2022/10/17 04:56:18;;;;;;;5.82;1.70;;;19.10;98.30;;;;;;5032728;28;20449;-84
2022/10/17 04:58:46;;;;;;;9.40;1.70;;;19.10;98.90;;;;;;5028782;28;20431;-83
2022/10/17 05:01:16;;;;;;;8.18;1.70;;;19.00;99.30;;;;;;5029573;28;20383;-84
2022/10/17 05:03:43;;;;;;;7.00;1.70;;;18.90;99.30;;;;;;5028386;28;20502;-85
2022/10/17 05:06:15;;;;;;;11.60;2.00;;;18.90;99.80;;;;;;5027146;28;20398;-84
2022/10/17 05:08:43;;;;;;;7.70;1.70;;;18.80;99.90;;;;;;5026558;28;20382;-84
2022/10/17 05:11:22;;;;;;;6.35;1.63;;;18.70;99.90;;;;;;5014978;28;20390;-85
2022/10/17 05:13:54;;;;;;;7.80;1.70;;;18.70;99.90;;;;;;5014924;28;20375;-85
2022/10/17 05:16:22;;;;;;;8.98;1.95;;;18.60;99.90;;;;;;5047565;28;20379;-86
2022/10/17 05:18:51;;;;;;;7.47;1.60;;;18.60;99.90;;;;;;5017595;28;20371;-84
2022/10/17 05:21:19;;;;;;;7.28;1.63;;;18.60;99.90;;;;;;5016922;28;20382;-86
2022/10/17 05:23:46;;;;;;;6.97;1.73;;;18.60;99.90;;;;;;5046955;28;20744;-83
2022/10/17 05:26:13;;;;;;;9.30;1.80;;;18.50;99.90;;;;;;5014007;28;20490;-84
2022/10/17 05:28:40;;;;;;;8.82;1.95;;;18.50;99.90;;;;;;5013542;28;20767;-84
2022/10/17 05:31:09;;;;;;;7.43;1.73;;;18.50;99.90;;;;;;5013736;28;20859;-84
2022/10/17 05:33:37;;;;;;;7.32;2.00;;;18.50;99.90;;;;;;5013311;28;20430;-82
2022/10/17 05:36:05;;;;;;;6.47;1.75;;;18.50;99.90;;;;;;5013549;28;20371;-84
2022/10/17 05:38:32;;;;;;;8.68;1.77;;;18.50;99.90;;;;;;5013511;28;20383;-89
2022/10/17 05:41:01;;;;;;;7.60;1.70;;;18.60;99.90;;;;;;5013223;28;20379;-83
2022/10/17 05:43:28;;;;;;;6.30;1.75;;;18.60;99.90;;;;;;5012232;28;20375;-86
2022/10/17 05:45:56;;;;;;;5.70;1.50;;;18.60;99.90;;;;;;5012769;28;20755;-84
2022/10/17 05:48:24;;;;;;;7.93;1.60;;;18.60;99.90;;;;;;5012368;28;20387;-84
2022/10/17 05:50:58;;;;;;;7.15;1.60;;;18.70;99.90;;;;;;5012749;28;20379;-85
2022/10/17 05:53:26;;;;;;;7.70;1.80;;;18.70;99.90;;;;;;5012445;28;20376;-82
2022/10/17 05:56:00;;;;;;;8.10;1.75;;;18.80;99.90;;;;;;5012446;28;20413;-84
2022/10/17 05:58:27;;;;;;;7.88;1.40;;;18.90;99.90;;;;;;5012938;28;20735;-84
2022/10/17 06:01:02;;;;;;;8.05;2.00;;;18.80;99.90;;;;;;5012742;28;20398;-84
2022/10/17 06:03:30;;;;;;;11.35;1.83;;;18.90;99.90;;;;;;5016109;28;20870;-86
2022/10/17 06:06:06;;;;;;;7.43;1.70;;;18.90;99.90;;;;;;5016181;28;20889;-84
2022/10/17 06:08:34;;;;;;;7.03;1.70;;;18.90;99.90;;;;;;5015537;28;20386;-84
2022/10/17 06:11:01;;;;;;;7.93;1.67;;;18.10;99.90;;;;;;5016444;28;20743;-83
2022/10/17 06:13:29;;;;;;;9.67;1.77;;;18.70;99.90;;;;;;5016166;28;20382;-84
2022/10/17 06:15:56;;;;;;;8.88;1.80;;;18.70;99.90;;;;;;5016077;28;20393;-81
2022/10/17 06:18:24;;;;;;;5.97;1.77;;;18.70;99.90;;;;;;5016881;28;20387;-82
2022/10/17 06:20:51;;;;;;;8.43;1.57;;;18.60;99.90;;;;;;5016146;28;20394;-83
2022/10/17 06:23:18;;;;;;;7.20;1.65;;;18.70;99.90;;;;;;5016411;28;20843;-82
2022/10/17 06:25:45;;;;;;;7.05;1.50;;;18.70;99.90;;;;;;5015671;28;20489;-84
2022/10/17 06:28:12;;;;;;;8.25;1.80;;;18.70;99.90;;;;;;5016265;28;20851;-84
2022/10/17 06:30:41;;;;;;;6.15;1.60;;;18.70;99.90;;;;;;5026775;28;20414;-82
2022/10/17 06:33:08;;;;;;;7.07;1.75;;;18.80;99.90;;;;;;5016362;28;20371;-82
2022/10/17 06:35:35;;;;;;;11.48;1.77;;;18.80;99.90;;;;;;5016101;28;20375;-82
2022/10/17 06:38:04;;;;;;;8.35;1.63;;;18.90;99.90;;;;;;5015973;28;20407;-83
2022/10/17 06:40:31;;;;;;;9.77;1.60;;;19.00;99.90;;;;;;5016160;28;20379;-83
2022/10/17 06:42:58;;;;;;;6.25;1.40;;;18.90;99.90;;;;;;5017483;28;20379;-82
2022/10/17 06:45:25;;;;;;;4.83;1.60;;;18.70;99.90;;;;;;5016139;28;20455;-83
2022/10/17 06:47:52;;;;;;;9.03;1.70;;;18.50;99.90;;;;;;5017403;28;20466;-85
2022/10/17 06:50:19;;;;;;;7.50;1.80;;;18.50;99.90;;;;;;5016941;28;20425;-87
2022/10/17 06:52:49;;;;;;;6.55;1.70;;;18.50;99.90;;;;;;5018674;28;20396;-84
2022/10/17 06:55:16;;;;;;;7.75;1.45;;;18.70;99.90;;;;;;5017099;28;20381;-85
2022/10/17 06:57:43;;;;;;;6.75;1.77;;;18.80;99.90;;;;;;5019583;28;20392;-91
2022/10/17 07:00:12;;;;;;;7.13;1.58;;;18.90;99.90;;;;;;5016965;28;20458;-87
2022/10/17 07:02:39;;;;;;;6.25;1.40;;;18.90;99.90;;;;;;5017053;28;20375;-86
2022/10/17 07:05:06;;;;;;;8.25;1.38;;;18.70;99.90;;;;;;5015682;28;20426;-86
2022/10/17 07:07:33;;;;;;;5.78;1.58;;;18.70;99.90;;;;;;5015687;28;20875;-82
2022/10/17 07:10:02;;;;;;;7.82;1.50;;;18.80;99.90;;;;;;5015965;28;20391;-82
2022/10/17 07:12:29;;;;;;;7.25;1.67;;;18.60;99.90;;;;;;5018054;28;20407;-88
2022/10/17 07:14:56;;;;;;;7.35;1.55;;;18.30;99.90;;;;;;5015602;28;20874;-86
2022/10/17 07:17:23;;;;;;;6.07;1.60;;;18.00;99.90;;;;;;5020273;28;20394;-84
2022/10/17 07:19:50;;;;;;;7.00;1.80;;;17.80;99.90;;;;;;5017306;28;20875;-82
2022/10/17 07:22:17;;;;;;;6.90;1.60;;;17.70;99.90;;;;;;5017765;28;20846;-82
2022/10/17 07:24:44;;;;;;;6.55;1.50;;;17.60;99.90;;;;;;5016496;28;20867;-84
2022/10/17 07:27:13;;;;;;;9.65;1.77;;;17.60;99.90;;;;;;5016182;28;20888;-87
2022/10/17 07:29:40;;;;;;;6.50;1.63;;;17.60;99.90;;;;;;5015858;28;20413;-85
2022/10/17 07:32:07;;;;;;;7.65;1.70;;;17.60;99.90;;;;;;5015942;28;20469;-85
2022/10/17 07:34:35;;;;;;;6.18;1.70;;;17.50;99.90;;;;;;5016930;28;20518;-87
2022/10/17 07:37:03;;;;;;;6.15;1.73;;;17.40;99.90;;;;;;5015206;28;20379;-84
2022/10/17 07:39:30;;;;;;;7.13;1.70;;;17.30;99.90;;;;;;5016736;28;20388;-83
2022/10/17 07:41:57;;;;;;;6.00;1.60;;;17.20;99.90;;;;;;5018562;28;20379;-80
2022/10/17 07:44:24;;;;;;;5.28;1.63;;;17.00;99.90;;;;;;5015907;28;20379;-84
2022/10/17 07:46:51;;;;;;;7.65;1.67;;;16.90;99.90;;;;;;5016512;28;20403;-87
2022/10/17 07:49:18;;;;;;;7.20;1.60;;;16.70;99.90;;;;;;5017813;28;20375;-87
2022/10/17 07:51:46;;;;;;;5.70;1.58;;;16.60;99.90;;;;;;5016463;28;20914;-88
2022/10/17 07:54:13;;;;;;;6.60;1.60;;;16.50;99.90;;;;;;5016099;28;20410;-85
2022/10/17 07:56:40;;;;;;;9.35;1.77;;;16.40;99.90;;;;;;5015137;28;20433;-84
2022/10/17 07:59:07;;;;;;;5.23;1.30;;;16.30;99.90;;;;;;5015274;28;20475;-86
2022/10/17 08:01:35;;;;;;;6.65;1.60;;;16.20;99.90;;;;;;5015526;28;20511;-89
2022/10/17 08:04:02;;;;;;;7.13;1.55;;;16.10;99.90;;;;;;5015411;28;20410;-88
2022/10/17 08:06:32;;;;;;;7.53;1.60;;;16.00;99.90;;;;;;5015685;28;20411;-82
2022/10/17 08:09:00;;;;;;;6.85;1.70;;;15.90;99.90;;;;;;5014449;28;20383;-84
2022/10/17 08:11:27;;;;;;;7.45;1.60;;;15.90;99.90;;;;;;5014987;28;20737;-84
2022/10/17 08:13:54;;;;;;;9.65;1.67;;;15.80;99.90;;;;;;5046693;28;20965;-85
2022/10/17 08:16:21;;;;;;;5.65;1.50;;;15.80;99.90;;;;;;5014857;28;20376;-84
2022/10/17 08:18:48;;;;;;;7.75;1.70;;;15.70;99.90;;;;;;5014982;28;20759;-84
2022/10/17 08:21:15;;;;;;;8.83;1.50;;;15.60;99.90;;;;;;5015602;28;20380;-88
2022/10/17 08:23:42;;;;;;;10.33;1.80;;;15.60;99.90;;;;;;5015394;28;20377;-81
2022/10/17 08:26:12;;;;;;;8.82;1.70;;;15.60;99.90;;;;;;5013567;28;20442;-83
2022/10/17 08:28:39;;;;;;;8.52;1.65;;;15.50;99.90;;;;;;5016442;28;20375;-89
2022/10/17 08:31:09;;;;;;;6.13;1.65;;;15.50;99.90;;;;;;5019567;28;20411;-89
2022/10/17 08:33:37;;;;;;;7.25;1.73;;;15.60;99.90;;;;;;5020032;28;20371;-91
2022/10/17 08:36:05;;;;;;;8.45;2.08;;;15.60;99.90;;;;;;5019409;28;20382;-88
2022/10/17 08:38:34;;;;;;;22.90;12.30;;;15.70;99.90;;;;;;5017990;28;20379;-81
2022/10/17 08:41:05;;;;;;;12.10;5.28;;;15.80;99.90;;;;;;5017263;28;20383;-90
2022/10/17 08:43:58;;;;;;;8.75;2.25;;;15.80;99.90;;;;;;5016815;28;20375;-86
2022/10/17 08:46:31;;;;;;;7.13;1.98;;;16.00;99.90;;;;;;5033204;28;20872;-87
2022/10/17 08:49:01;;;;;;;8.85;1.83;;;16.00;99.90;;;;;;5032859;28;20383;-88
2022/10/17 08:51:33;;;;;;;8.67;1.80;;;16.10;99.90;;;;;;5035637;28;20382;-86
2022/10/17 08:54:25;;;;;;;9.25;2.00;;;16.10;99.90;;;;;;5032608;28;20380;-89
2022/10/17 08:56:54;;;;;;;6.93;1.60;;;16.20;99.90;;;;;;5032584;28;20440;-88
2022/10/17 08:59:28;;;;;;;7.65;1.80;;;16.20;99.90;;;;;;5033156;28;20468;-86
2022/10/17 09:02:13;;;;;;;7.00;2.03;;;16.20;99.90;;;;;;5030405;28;20388;-89
2022/10/17 09:05:00;;;;;;;6.70;2.08;;;16.20;99.90;;;;;;5033266;28;20381;-89
2022/10/17 09:07:51;;;;;;;11.40;2.00;;;16.20;99.90;;;;;;5032266;28;20381;-86
2022/10/17 09:10:42;;;;;;;10.00;2.50;;;16.30;99.90;;;;;;5032600;28;20442;-88
2022/10/17 09:13:17;;;;;;;10.43;2.55;;;16.20;99.90;;;;;;5032758;28;20925;-90
2022/10/17 09:16:22;;;;;;;9.55;2.30;;;16.30;99.90;;;;;;5032374;28;20446;-88
2022/10/17 09:19:20;;;;;;;12.70;2.30;;;16.20;99.90;;;;;;5013191;28;20471;-85
2022/10/17 09:21:56;;;;;;;10.80;2.05;;;16.30;99.90;;;;;;5013405;28;20479;-87
2022/10/17 09:24:33;;;;;;;8.95;1.98;;;16.30;99.90;;;;;;5013081;28;20430;-82
2022/10/17 09:27:01;;;;;;;13.48;2.15;;;16.30;99.90;;;;;;5012655;28;20439;-87
2022/10/17 09:29:29;;;;;;;8.95;2.00;;;16.30;99.90;;;;;;5012769;28;20379;-88
2022/10/17 09:32:28;;;;;;;11.20;2.03;;;16.30;99.90;;;;;;5012937;28;20446;-89
2022/10/17 09:34:56;;;;;;;9.40;1.98;;;16.30;99.90;;;;;;4997147;28;20390;-86
2022/10/17 09:37:30;;;;;;;6.63;1.80;;;16.30;99.90;;;;;;5016676;28;20878;-86
2022/10/17 09:39:57;;;;;;;7.00;2.05;;;16.30;99.90;;;;;;5012412;28;20390;-88
2022/10/17 09:42:26;;;;;;;8.35;1.90;;;16.30;99.90;;;;;;5012411;28;20736;-88
2022/10/17 09:45:18;;;;;;;8.68;2.10;;;16.30;99.90;;;;;;5012022;28;20890;-89
2022/10/17 09:48:10;;;;;;;9.98;2.17;;;16.30;99.90;;;;;;5012535;28;20891;-85
2022/10/17 09:50:37;;;;;;;10.70;2.10;;;16.30;99.90;;;;;;5028282;28;20378;-88
2022/10/17 09:53:32;;;;;;;8.18;1.90;;;16.30;99.90;;;;;;5032315;28;20381;-87
2022/10/17 09:56:02;;;;;;;8.87;1.83;;;16.20;99.90;;;;;;5031957;28;20422;-84
2022/10/17 09:58:46;;;;;;;11.27;2.05;;;16.20;99.90;;;;;;5032276;28;20372;-82
2022/10/17 10:01:30;;;;;;;10.65;2.00;;;16.30;99.90;;;;;;5031956;28;20377;-83
2022/10/17 10:04:09;;;;;;;13.50;2.00;;;16.20;99.90;;;;;;5031219;28;20378;-83
2022/10/17 10:06:36;;;;;;;7.95;1.90;;;16.20;99.90;;;;;;5032048;28;20413;-83
2022/10/17 10:09:05;;;;;;;10.03;2.10;;;16.20;99.90;;;;;;5031274;28;20425;-84
2022/10/17 10:11:54;;;;;;;9.02;2.00;;;16.20;99.90;;;;;;5021303;28;20387;-86
2022/10/17 10:14:38;;;;;;;7.60;1.98;;;16.20;99.90;;;;;;5014982;28;20379;-85
2022/10/17 10:17:25;;;;;;;7.97;1.97;;;16.20;99.90;;;;;;5017487;28;20372;-84
2022/10/17 10:19:58;;;;;;;9.40;1.83;;;16.20;99.90;;;;;;5016056;28;20367;-87
2022/10/17 10:22:25;;;;;;;9.20;2.00;;;16.20;99.90;;;;;;5013461;28;20735;-86
2022/10/17 10:25:10;;;;;;;9.48;2.08;;;16.20;99.90;;;;;;5014641;28;20406;-87
2022/10/17 10:27:40;;;;;;;9.77;1.88;;;16.20;99.90;;;;;;5012421;28;20407;-89
2022/10/17 10:30:16;;;;;;;9.40;1.70;;;16.10;99.90;;;;;;5014464;28;20376;-88
2022/10/17 10:32:46;;;;;;;10.63;1.83;;;16.10;99.90;;;;;;5015728;28;20484;-89
2022/10/17 10:35:30;;;;;;;7.90;1.63;;;16.20;99.90;;;;;;5014833;28;20367;-87
2022/10/17 10:38:01;;;;;;;7.88;1.65;;;16.10;99.90;;;;;;5014772;28;20406;-91
2022/10/17 10:40:51;;;;;;;6.67;1.67;;;16.10;99.90;;;;;;5015319;28;20417;-89
2022/10/17 10:43:37;;;;;;;12.30;2.05;;;16.10;99.90;;;;;;5014736;28;20818;-86
2022/10/17 10:46:27;;;;;;;5.45;1.73;;;16.10;99.90;;;;;;5014353;28;20887;-88
2022/10/17 10:48:59;;;;;;;6.97;1.52;;;16.10;99.90;;;;;;5014295;28;20376;-85
2022/10/17 10:51:39;;;;;;;7.10;1.80;;;16.10;99.90;;;;;;5017818;28;20363;-79
2022/10/17 10:54:21;;;;;;;9.23;1.73;;;16.10;99.90;;;;;;5018429;28;20397;-87
2022/10/17 10:56:55;;;;;;;9.10;1.65;;;16.00;99.90;;;;;;5018992;28;20382;-87
2022/10/17 10:59:34;;;;;;;7.70;1.67;;;16.10;99.90;;;;;;5017894;28;20839;-84
2022/10/17 11:02:24;;;;;;;8.55;1.90;;;16.10;99.90;;;;;;5082578;28;20387;-86
2022/10/17 11:04:51;;;;;;;11.75;2.00;;;16.10;99.90;;;;;;5016077;28;20372;-84
2022/10/17 11:07:18;;;;;;;8.30;1.92;;;16.00;99.90;;;;;;5020745;28;20456;-80
2022/10/17 11:09:58;;;;;;;7.68;1.83;;;16.00;99.90;;;;;;5017515;28;20379;-81
2022/10/17 11:12:32;;;;;;;6.57;1.70;;;16.00;99.90;;;;;;5017151;28;20373;-88
2022/10/17 11:15:20;;;;;;;7.03;1.92;;;16.00;99.90;;;;;;5018042;28;20386;-79
2022/10/17 11:18:09;;;;;;;8.00;1.77;;;15.90;99.90;;;;;;5017401;28;20417;-84
2022/10/17 11:20:43;;;;;;;11.02;2.00;;;15.90;99.90;;;;;;5019319;28;20371;-86
2022/10/17 11:23:30;;;;;;;10.00;1.88;;;15.90;99.90;;;;;;5021232;28;20462;-88
2022/10/17 11:26:02;;;;;;;10.50;1.77;;;15.90;99.90;;;;;;5021805;28;20407;-86
2022/10/17 11:28:30;;;;;;;7.05;1.67;;;15.80;99.90;;;;;;5022375;28;20379;-78
2022/10/17 11:31:12;;;;;;;9.20;1.90;;;15.80;99.90;;;;;;5028814;28;20437;-79
2022/10/17 11:33:46;;;;;;;9.65;1.75;;;15.80;99.90;;;;;;5060418;28;20380;-84
2022/10/17 11:36:15;;;;;;;7.97;1.70;;;15.80;99.90;;;;;;5033589;28;20364;-85
2022/10/17 11:38:49;;;;;;;8.73;1.83;;;15.80;99.90;;;;;;5034205;28;20430;-87
2022/10/17 11:41:36;;;;;;;7.88;1.75;;;15.80;99.90;;;;;;5023367;28;20367;-86
2022/10/17 11:44:31;;;;;;;8.70;1.87;;;15.80;99.90;;;;;;5022459;28;20379;-83
2022/10/17 11:47:30;;;;;;;8.73;1.80;;;15.70;99.90;;;;;;5020428;28;20763;-81
2022/10/17 11:50:24;;;;;;;6.65;1.73;;;15.70;99.90;;;;;;5024201;28;20363;-83
2022/10/17 11:53:01;;;;;;;9.40;1.88;;;15.70;99.90;;;;;;5022983;28;20388;-89
2022/10/17 11:55:33;;;;;;;8.95;1.80;;;15.60;99.90;;;;;;5035176;28;20386;-84
2022/10/17 11:58:20;;;;;;;9.65;1.80;;;15.60;99.90;;;;;;5019805;28;20878;-87
2022/10/17 12:01:08;;;;;;;7.43;1.70;;;15.60;99.90;;;;;;5017406;28;20375;-84
2022/10/17 12:03:49;;;;;;;7.72;1.80;;;15.50;99.90;;;;;;5016706;28;20376;-86
2022/10/17 12:06:44;;;;;;;8.70;1.90;;;15.50;99.90;;;;;;5016493;28;20399;-82
2022/10/17 12:09:23;;;;;;;8.93;1.90;;;15.50;99.90;;;;;;5016561;28;20375;-87
2022/10/17 12:11:56;;;;;;;7.32;1.73;;;15.50;99.90;;;;;;5016297;28;20387;-86
2022/10/17 12:15:25;;;;;;;7.32;1.63;;;15.50;99.90;;;;;;5018571;28;20899;-84
2022/10/17 12:18:01;;;;;;;7.07;1.70;;;15.50;99.90;;;;;;5033794;28;20390;-81
2022/10/17 12:20:37;;;;;;;10.00;1.90;;;15.50;99.90;;;;;;5033605;28;20376;-83
2022/10/17 12:23:12;;;;;;;8.50;2.00;;;15.40;99.90;;;;;;5048461;28;20393;-85
2022/10/17 12:26:09;;;;;;;11.20;1.80;;;15.40;99.90;;;;;;5032469;28;20413;-86
2022/10/17 12:28:47;;;;;;;6.45;1.80;;;15.50;99.90;;;;;;5032285;28;20369;-82
2022/10/17 12:31:18;;;;;;;9.35;1.85;;;15.40;99.90;;;;;;5032311;28;20385;-80
2022/10/17 12:34:02;;;;;;;7.83;1.90;;;15.50;99.90;;;;;;5032471;28;20382;-81
2022/10/17 12:36:29;;;;;;;9.27;1.90;;;15.50;99.90;;;;;;5032936;28;20393;-82
2022/10/17 12:39:10;;;;;;;7.97;1.75;;;15.40;99.90;;;;;;5032773;28;20381;-81
2022/10/17 12:41:41;;;;;;;8.25;1.73;;;15.40;99.90;;;;;;5032403;28;20440;-82
2022/10/17 12:44:13;;;;;;;8.20;1.80;;;15.40;99.90;;;;;;5015423;28;20821;-83
2022/10/17 12:46:47;;;;;;;8.85;1.83;;;15.40;99.90;;;;;;5032630;28;20919;-81
2022/10/17 12:49:39;;;;;;;7.70;1.90;;;15.40;99.90;;;;;;5016345;28;20375;-83
2022/10/17 12:52:33;;;;;;;6.82;1.92;;;15.30;99.90;;;;;;5012587;28;20787;-84
2022/10/17 12:55:12;;;;;;;7.47;1.70;;;15.30;99.90;;;;;;5012257;28;20906;-82
2022/10/17 12:57:42;;;;;;;8.30;1.73;;;15.30;99.90;;;;;;4995751;28;20376;-82
2022/10/17 13:00:12;;;;;;;7.47;1.80;;;15.30;99.90;;;;;;5012448;28;20379;-85
2022/10/17 13:02:40;;;;;;;11.03;2.00;;;15.40;99.90;;;;;;5012610;28;20391;-82
2022/10/17 13:05:31;;;;;;;6.63;1.90;;;15.30;99.90;;;;;;5013184;28;20466;-80
2022/10/17 13:08:02;;;;;;;9.40;2.22;;;15.40;99.90;;;;;;5014363;28;20389;-86
2022/10/17 13:10:34;;;;;;;11.50;2.50;;;15.40;99.90;;;;;;5015278;28;20885;-80
2022/10/17 13:13:37;;;;;;;8.55;2.00;;;15.30;99.90;;;;;;5014235;28;20384;-80
2022/10/17 13:16:04;;;;;;;7.90;1.90;;;15.30;99.90;;;;;;5012839;28;20390;-82
2022/10/17 13:18:31;;;;;;;8.65;1.92;;;15.20;99.90;;;;;;5014036;28;20443;-80